sensor_id;sensor_type;location;lat;lon;timestamp;P1;durP1;ratioP1;P2;durP2;ratioP2
44137;SDS011;29800;55.942;37.314;2023-06-04T00:00:24;7.55;;;2.53;;
44137;SDS011;29800;55.942;37.314;2023-06-04T00:07:20;5.68;;;2.25;;
44137;SDS011;29800;55.942;37.314;2023-06-04T00:13:32;6.72;;;1.98;;
44137;SDS011;29800;55.942;37.314;2023-06-04T00:15:59;4.78;;;2.20;;
44137;SDS011;29800;55.942;37.314;2023-06-04T00:22:23;4.85;;;2.80;;
44137;SDS011;29800;55.942;37.314;2023-06-04T00:28:27;5.00;;;2.60;;
44137;SDS011;29800;55.942;37.314;2023-06-04T00:34:27;7.38;;;2.63;;
44137;SDS011;29800;55.942;37.314;2023-06-04T00:37:12;5.05;;;2.53;;
44137;SDS011;29800;55.942;37.314;2023-06-04T00:40:05;11.68;;;2.60;;
44137;SDS011;29800;55.942;37.314;2023-06-04T00:49:01;8.55;;;2.53;;
44137;SDS011;29800;55.942;37.314;2023-06-04T00:51:29;7.68;;;2.20;;
44137;SDS011;29800;55.942;37.314;2023-06-04T01:00:04;8.47;;;2.30;;
44137;SDS011;29800;55.942;37.314;2023-06-04T01:02:33;4.32;;;2.03;;
44137;SDS011;29800;55.942;37.314;2023-06-04T01:05:56;3.15;;;2.00;;
44137;SDS011;29800;55.942;37.314;2023-06-04T01:08:33;5.45;;;2.17;;
44137;SDS011;29800;55.942;37.314;2023-06-04T01:11:18;4.10;;;2.03;;
44137;SDS011;29800;55.942;37.314;2023-06-04T01:17:29;6.13;;;2.40;;
44137;SDS011;29800;55.942;37.314;2023-06-04T01:26:20;3.15;;;1.77;;
44137;SDS011;29800;55.942;37.314;2023-06-04T01:28:48;6.60;;;1.90;;
44137;SDS011;29800;55.942;37.314;2023-06-04T01:35:08;3.97;;;1.80;;
44137;SDS011;29800;55.942;37.314;2023-06-04T01:41:18;3.70;;;2.00;;
44137;SDS011;29800;55.942;37.314;2023-06-04T01:56:34;6.53;;;2.00;;
44137;SDS011;29800;55.942;37.314;2023-06-04T01:59:51;3.33;;;1.42;;
44137;SDS011;29800;55.942;37.314;2023-06-04T02:02:36;5.40;;;1.60;;
44137;SDS011;29800;55.942;37.314;2023-06-04T02:05:34;3.55;;;1.50;;
44137;SDS011;29800;55.942;37.314;2023-06-04T02:12:17;6.97;;;1.92;;
44137;SDS011;29800;55.942;37.314;2023-06-04T02:15:40;7.35;;;2.15;;
44137;SDS011;29800;55.942;37.314;2023-06-04T02:24:57;6.07;;;2.07;;
44137;SDS011;29800;55.942;37.314;2023-06-04T02:28:31;4.20;;;1.70;;
44137;SDS011;29800;55.942;37.314;2023-06-04T02:31:06;3.80;;;1.70;;
44137;SDS011;29800;55.942;37.314;2023-06-04T02:34:09;5.03;;;1.80;;
44137;SDS011;29800;55.942;37.314;2023-06-04T02:37:12;3.65;;;1.70;;
44137;SDS011;29800;55.942;37.314;2023-06-04T02:40:09;7.03;;;1.92;;
44137;SDS011;29800;55.942;37.314;2023-06-04T02:42:48;5.75;;;1.80;;
44137;SDS011;29800;55.942;37.314;2023-06-04T02:48:55;4.38;;;1.60;;
44137;SDS011;29800;55.942;37.314;2023-06-04T02:52:07;5.68;;;1.88;;
44137;SDS011;29800;55.942;37.314;2023-06-04T02:54:45;3.45;;;1.77;;
44137;SDS011;29800;55.942;37.314;2023-06-04T02:57:24;3.40;;;1.30;;
44137;SDS011;29800;55.942;37.314;2023-06-04T02:59:50;1.60;;;1.10;;
44137;SDS011;29800;55.942;37.314;2023-06-04T03:02:42;3.45;;;1.20;;
44137;SDS011;29800;55.942;37.314;2023-06-04T03:06:04;4.28;;;1.30;;
44137;SDS011;29800;55.942;37.314;2023-06-04T03:09:01;4.85;;;1.30;;
44137;SDS011;29800;55.942;37.314;2023-06-04T03:12:07;2.58;;;1.05;;
44137;SDS011;29800;55.942;37.314;2023-06-04T03:15:01;3.10;;;1.25;;
44137;SDS011;29800;55.942;37.314;2023-06-04T03:18:14;1.70;;;1.02;;
44137;SDS011;29800;55.942;37.314;2023-06-04T03:20:59;3.03;;;1.23;;
44137;SDS011;29800;55.942;37.314;2023-06-04T03:23:38;1.92;;;1.20;;
44137;SDS011;29800;55.942;37.314;2023-06-04T03:26:47;4.07;;;1.10;;
44137;SDS011;29800;55.942;37.314;2023-06-04T03:29:26;2.38;;;1.13;;
44137;SDS011;29800;55.942;37.314;2023-06-04T03:32:23;2.15;;;1.20;;
44137;SDS011;29800;55.942;37.314;2023-06-04T03:35:40;2.15;;;1.17;;
44137;SDS011;29800;55.942;37.314;2023-06-04T03:38:45;1.95;;;1.10;;
44137;SDS011;29800;55.942;37.314;2023-06-04T03:42:00;2.60;;;1.05;;
44137;SDS011;29800;55.942;37.314;2023-06-04T03:48:16;1.92;;;1.00;;
44137;SDS011;29800;55.942;37.314;2023-06-04T03:51:14;1.67;;;1.30;;
44137;SDS011;29800;55.942;37.314;2023-06-04T03:54:39;1.60;;;0.98;;
44137;SDS011;29800;55.942;37.314;2023-06-04T03:57:17;1.33;;;0.80;;
44137;SDS011;29800;55.942;37.314;2023-06-04T03:59:53;1.90;;;1.00;;
44137;SDS011;29800;55.942;37.314;2023-06-04T04:02:57;2.15;;;1.20;;
44137;SDS011;29800;55.942;37.314;2023-06-04T04:06:12;2.10;;;0.88;;
44137;SDS011;29800;55.942;37.314;2023-06-04T04:09:43;1.70;;;0.98;;
44137;SDS011;29800;55.942;37.314;2023-06-04T04:12:47;2.67;;;0.90;;
44137;SDS011;29800;55.942;37.314;2023-06-04T04:15:59;2.08;;;0.80;;
44137;SDS011;29800;55.942;37.314;2023-06-04T04:18:40;3.53;;;1.10;;
44137;SDS011;29800;55.942;37.314;2023-06-04T04:24:38;0.95;;;0.77;;
44137;SDS011;29800;55.942;37.314;2023-06-04T04:27:23;2.83;;;0.90;;
44137;SDS011;29800;55.942;37.314;2023-06-04T04:30:29;1.53;;;0.80;;
44137;SDS011;29800;55.942;37.314;2023-06-04T04:33:30;3.00;;;1.00;;
44137;SDS011;29800;55.942;37.314;2023-06-04T04:36:25;1.42;;;0.98;;
44137;SDS011;29800;55.942;37.314;2023-06-04T04:39:24;2.03;;;0.98;;
44137;SDS011;29800;55.942;37.314;2023-06-04T04:42:20;1.50;;;0.80;;
44137;SDS011;29800;55.942;37.314;2023-06-04T04:45:23;3.00;;;1.02;;
44137;SDS011;29800;55.942;37.314;2023-06-04T04:48:45;1.10;;;0.75;;
44137;SDS011;29800;55.942;37.314;2023-06-04T04:51:48;5.97;;;1.05;;
44137;SDS011;29800;55.942;37.314;2023-06-04T04:59:59;1.80;;;0.80;;
44137;SDS011;29800;55.942;37.314;2023-06-04T05:05:29;2.72;;;0.75;;
44137;SDS011;29800;55.942;37.314;2023-06-04T05:11:31;2.95;;;0.60;;
44137;SDS011;29800;55.942;37.314;2023-06-04T05:14:26;1.35;;;0.50;;
44137;SDS011;29800;55.942;37.314;2023-06-04T05:17:20;3.38;;;0.63;;
44137;SDS011;29800;55.942;37.314;2023-06-04T05:20:33;1.70;;;0.70;;
44137;SDS011;29800;55.942;37.314;2023-06-04T05:23:31;1.27;;;0.70;;
44137;SDS011;29800;55.942;37.314;2023-06-04T05:26:55;1.92;;;0.57;;
44137;SDS011;29800;55.942;37.314;2023-06-04T05:35:49;0.95;;;0.50;;
44137;SDS011;29800;55.942;37.314;2023-06-04T05:38:40;0.95;;;0.52;;
44137;SDS011;29800;55.942;37.314;2023-06-04T05:41:38;1.08;;;0.63;;
44137;SDS011;29800;55.942;37.314;2023-06-04T05:47:55;1.23;;;0.70;;
44137;SDS011;29800;55.942;37.314;2023-06-04T05:50:43;1.40;;;0.50;;
44137;SDS011;29800;55.942;37.314;2023-06-04T05:53:10;1.42;;;0.50;;
44137;SDS011;29800;55.942;37.314;2023-06-04T05:56:32;1.58;;;0.70;;
44137;SDS011;29800;55.942;37.314;2023-06-04T06:06:41;1.48;;;0.60;;
44137;SDS011;29800;55.942;37.314;2023-06-04T06:10:04;1.27;;;0.50;;
44137;SDS011;29800;55.942;37.314;2023-06-04T06:13:07;1.10;;;0.60;;
44137;SDS011;29800;55.942;37.314;2023-06-04T06:16:06;1.63;;;0.50;;
44137;SDS011;29800;55.942;37.314;2023-06-04T06:19:27;2.22;;;0.88;;
44137;SDS011;29800;55.942;37.314;2023-06-04T06:26:03;1.33;;;0.60;;
44137;SDS011;29800;55.942;37.314;2023-06-04T06:29:10;1.25;;;0.47;;
44137;SDS011;29800;55.942;37.314;2023-06-04T06:31:47;0.82;;;0.60;;
44137;SDS011;29800;55.942;37.314;2023-06-04T06:34:32;0.80;;;0.50;;
44137;SDS011;29800;55.942;37.314;2023-06-04T06:37:41;0.80;;;0.30;;
44137;SDS011;29800;55.942;37.314;2023-06-04T06:40:40;0.85;;;0.57;;
44137;SDS011;29800;55.942;37.314;2023-06-04T06:43:06;1.95;;;0.65;;
44137;SDS011;29800;55.942;37.314;2023-06-04T06:45:51;2.45;;;0.75;;
44137;SDS011;29800;55.942;37.314;2023-06-04T06:51:57;2.03;;;0.60;;
44137;SDS011;29800;55.942;37.314;2023-06-04T06:54:23;0.85;;;0.55;;
44137;SDS011;29800;55.942;37.314;2023-06-04T06:57:17;3.73;;;0.73;;
44137;SDS011;29800;55.942;37.314;2023-06-04T07:00:02;1.27;;;0.57;;
44137;SDS011;29800;55.942;37.314;2023-06-04T07:02:47;1.10;;;0.80;;
44137;SDS011;29800;55.942;37.314;2023-06-04T07:05:44;1.47;;;0.70;;
44137;SDS011;29800;55.942;37.314;2023-06-04T07:08:29;0.85;;;0.50;;
44137;SDS011;29800;55.942;37.314;2023-06-04T07:14:27;1.50;;;0.73;;
44137;SDS011;29800;55.942;37.314;2023-06-04T07:21:11;0.95;;;0.70;;
44137;SDS011;29800;55.942;37.314;2023-06-04T07:23:37;0.65;;;0.50;;
44137;SDS011;29800;55.942;37.314;2023-06-04T07:26:03;1.88;;;0.60;;
44137;SDS011;29800;55.942;37.314;2023-06-04T07:32:20;1.40;;;0.77;;
44137;SDS011;29800;55.942;37.314;2023-06-04T07:35:54;1.70;;;0.80;;
44137;SDS011;29800;55.942;37.314;2023-06-04T07:38:58;0.57;;;0.57;;
44137;SDS011;29800;55.942;37.314;2023-06-04T07:41:37;1.35;;;0.70;;
44137;SDS011;29800;55.942;37.314;2023-06-04T07:47:36;1.40;;;0.82;;
44137;SDS011;29800;55.942;37.314;2023-06-04T07:50:39;3.78;;;2.00;;
44137;SDS011;29800;55.942;37.314;2023-06-04T07:53:24;4.03;;;2.20;;
44137;SDS011;29800;55.942;37.314;2023-06-04T07:56:10;4.10;;;2.25;;
44137;SDS011;29800;55.942;37.314;2023-06-04T07:59:25;2.63;;;1.20;;
44137;SDS011;29800;55.942;37.314;2023-06-04T08:06:02;3.72;;;1.10;;
44137;SDS011;29800;55.942;37.314;2023-06-04T08:12:22;4.38;;;0.85;;
44137;SDS011;29800;55.942;37.314;2023-06-04T08:15:01;1.00;;;0.70;;
44137;SDS011;29800;55.942;37.314;2023-06-04T08:17:47;1.85;;;0.80;;
44137;SDS011;29800;55.942;37.314;2023-06-04T08:20:30;2.00;;;0.88;;
44137;SDS011;29800;55.942;37.314;2023-06-04T08:24:05;1.52;;;1.05;;
44137;SDS011;29800;55.942;37.314;2023-06-04T08:30:02;2.65;;;1.10;;
44137;SDS011;29800;55.942;37.314;2023-06-04T08:39:50;4.32;;;2.00;;
44137;SDS011;29800;55.942;37.314;2023-06-04T08:42:57;2.58;;;1.17;;
44137;SDS011;29800;55.942;37.314;2023-06-04T08:45:38;3.45;;;2.10;;
44137;SDS011;29800;55.942;37.314;2023-06-04T08:52:09;3.65;;;2.83;;
44137;SDS011;29800;55.942;37.314;2023-06-04T08:55:12;2.78;;;1.60;;
44137;SDS011;29800;55.942;37.314;2023-06-04T09:01:39;2.92;;;0.90;;
44137;SDS011;29800;55.942;37.314;2023-06-04T09:04:10;2.70;;;1.15;;
44137;SDS011;29800;55.942;37.314;2023-06-04T09:07:30;1.25;;;0.65;;
44137;SDS011;29800;55.942;37.314;2023-06-04T09:10:00;2.05;;;0.80;;
44137;SDS011;29800;55.942;37.314;2023-06-04T09:12:57;1.38;;;0.70;;
44137;SDS011;29800;55.942;37.314;2023-06-04T09:16:14;1.55;;;0.90;;
44137;SDS011;29800;55.942;37.314;2023-06-04T09:22:46;1.75;;;1.02;;
44137;SDS011;29800;55.942;37.314;2023-06-04T09:25:42;1.55;;;0.80;;
44137;SDS011;29800;55.942;37.314;2023-06-04T09:41:20;3.60;;;1.50;;
44137;SDS011;29800;55.942;37.314;2023-06-04T09:44:15;3.27;;;1.50;;
44137;SDS011;29800;55.942;37.314;2023-06-04T09:50:29;3.88;;;2.30;;
44137;SDS011;29800;55.942;37.314;2023-06-04T09:57:17;2.55;;;1.50;;
44137;SDS011;29800;55.942;37.314;2023-06-04T10:00:05;4.05;;;3.30;;
44137;SDS011;29800;55.942;37.314;2023-06-04T10:03:08;4.15;;;1.80;;
44137;SDS011;29800;55.942;37.314;2023-06-04T10:05:56;1.80;;;1.02;;
44137;SDS011;29800;55.942;37.314;2023-06-04T10:15:33;2.70;;;0.95;;
44137;SDS011;29800;55.942;37.314;2023-06-04T10:21:42;3.28;;;0.90;;
44137;SDS011;29800;55.942;37.314;2023-06-04T10:27:22;1.55;;;0.90;;
44137;SDS011;29800;55.942;37.314;2023-06-04T10:33:07;2.70;;;1.20;;
44137;SDS011;29800;55.942;37.314;2023-06-04T10:45:55;2.13;;;1.20;;
44137;SDS011;29800;55.942;37.314;2023-06-04T10:52:09;1.42;;;0.80;;
44137;SDS011;29800;55.942;37.314;2023-06-04T10:55:25;2.17;;;1.05;;
44137;SDS011;29800;55.942;37.314;2023-06-04T11:02:09;1.63;;;1.00;;
44137;SDS011;29800;55.942;37.314;2023-06-04T11:04:59;2.53;;;1.48;;
44137;SDS011;29800;55.942;37.314;2023-06-04T11:10:31;6.85;;;1.17;;
44137;SDS011;29800;55.942;37.314;2023-06-04T11:13:23;1.80;;;1.00;;
44137;SDS011;29800;55.942;37.314;2023-06-04T11:15:52;1.63;;;0.90;;
44137;SDS011;29800;55.942;37.314;2023-06-04T11:18:30;1.73;;;0.90;;
44137;SDS011;29800;55.942;37.314;2023-06-04T11:27:53;1.27;;;0.80;;
44137;SDS011;29800;55.942;37.314;2023-06-04T11:30:55;2.95;;;1.10;;
44137;SDS011;29800;55.942;37.314;2023-06-04T11:37:30;2.45;;;0.80;;
44137;SDS011;29800;55.942;37.314;2023-06-04T11:40:37;1.45;;;0.80;;
44137;SDS011;29800;55.942;37.314;2023-06-04T11:43:49;1.80;;;0.90;;
44137;SDS011;29800;55.942;37.314;2023-06-04T11:46:55;2.63;;;0.80;;
44137;SDS011;29800;55.942;37.314;2023-06-04T11:49:59;1.85;;;1.08;;
44137;SDS011;29800;55.942;37.314;2023-06-04T11:52:53;2.08;;;1.00;;
44137;SDS011;29800;55.942;37.314;2023-06-04T11:59:13;4.53;;;1.00;;
44137;SDS011;29800;55.942;37.314;2023-06-04T12:02:07;2.85;;;1.05;;
44137;SDS011;29800;55.942;37.314;2023-06-04T12:08:14;2.67;;;0.93;;
44137;SDS011;29800;55.942;37.314;2023-06-04T12:10:59;3.10;;;1.00;;
44137;SDS011;29800;55.942;37.314;2023-06-04T12:14:05;1.63;;;0.80;;
44137;SDS011;29800;55.942;37.314;2023-06-04T12:17:09;2.05;;;1.15;;
44137;SDS011;29800;55.942;37.314;2023-06-04T12:24:06;1.80;;;1.10;;
44137;SDS011;29800;55.942;37.314;2023-06-04T12:27:16;2.42;;;0.90;;
44137;SDS011;29800;55.942;37.314;2023-06-04T12:30:22;1.70;;;0.80;;
44137;SDS011;29800;55.942;37.314;2023-06-04T12:33:25;3.50;;;0.85;;
44137;SDS011;29800;55.942;37.314;2023-06-04T12:36:04;3.65;;;1.10;;
44137;SDS011;29800;55.942;37.314;2023-06-04T12:42:23;1.70;;;1.00;;
44137;SDS011;29800;55.942;37.314;2023-06-04T12:48:41;3.45;;;0.95;;
44137;SDS011;29800;55.942;37.314;2023-06-04T12:57:58;2.75;;;1.70;;
44137;SDS011;29800;55.942;37.314;2023-06-04T13:03:49;1.83;;;0.80;;
44137;SDS011;29800;55.942;37.314;2023-06-04T13:06:15;1.60;;;0.88;;
44137;SDS011;29800;55.942;37.314;2023-06-04T13:09:00;2.63;;;1.20;;
44137;SDS011;29800;55.942;37.314;2023-06-04T13:18:06;2.00;;;0.93;;
44137;SDS011;29800;55.942;37.314;2023-06-04T13:20:51;1.83;;;0.90;;
44137;SDS011;29800;55.942;37.314;2023-06-04T13:23:48;1.60;;;0.90;;
44137;SDS011;29800;55.942;37.314;2023-06-04T13:26:28;13.77;;;5.40;;
44137;SDS011;29800;55.942;37.314;2023-06-04T13:29:06;7.10;;;3.42;;
44137;SDS011;29800;55.942;37.314;2023-06-04T13:32:10;4.40;;;1.98;;
44137;SDS011;29800;55.942;37.314;2023-06-04T13:40:38;3.50;;;2.00;;
44137;SDS011;29800;55.942;37.314;2023-06-04T13:43:41;9.10;;;6.78;;
44137;SDS011;29800;55.942;37.314;2023-06-04T13:46:44;2.55;;;1.52;;
44137;SDS011;29800;55.942;37.314;2023-06-04T13:49:29;4.38;;;2.95;;
44137;SDS011;29800;55.942;37.314;2023-06-04T13:52:51;3.28;;;2.00;;
44137;SDS011;29800;55.942;37.314;2023-06-04T13:55:54;7.75;;;3.88;;
44137;SDS011;29800;55.942;37.314;2023-06-04T13:58:58;5.97;;;1.50;;
44137;SDS011;29800;55.942;37.314;2023-06-04T14:01:54;2.80;;;1.30;;
44137;SDS011;29800;55.942;37.314;2023-06-04T14:04:52;2.45;;;1.35;;
44137;SDS011;29800;55.942;37.314;2023-06-04T14:07:59;9.25;;;3.30;;
44137;SDS011;29800;55.942;37.314;2023-06-04T14:10:56;3.47;;;1.60;;
44137;SDS011;29800;55.942;37.314;2023-06-04T14:13:23;4.68;;;1.58;;
44137;SDS011;29800;55.942;37.314;2023-06-04T14:16:01;5.53;;;3.63;;
44137;SDS011;29800;55.942;37.314;2023-06-04T14:18:37;2.70;;;1.75;;
44137;SDS011;29800;55.942;37.314;2023-06-04T14:21:18;7.47;;;1.10;;
44137;SDS011;29800;55.942;37.314;2023-06-04T14:27:25;6.03;;;2.70;;
44137;SDS011;29800;55.942;37.314;2023-06-04T14:44:46;5.00;;;1.10;;
44137;SDS011;29800;55.942;37.314;2023-06-04T14:47:13;5.15;;;0.80;;
44137;SDS011;29800;55.942;37.314;2023-06-04T14:49:40;1.83;;;1.00;;
44137;SDS011;29800;55.942;37.314;2023-06-04T14:52:06;2.28;;;1.10;;
44137;SDS011;29800;55.942;37.314;2023-06-04T14:54:33;2.28;;;1.27;;
44137;SDS011;29800;55.942;37.314;2023-06-04T14:57:00;1.80;;;1.05;;
44137;SDS011;29800;55.942;37.314;2023-06-04T14:59:27;2.67;;;0.90;;
44137;SDS011;29800;55.942;37.314;2023-06-04T15:01:54;2.75;;;1.20;;
44137;SDS011;29800;55.942;37.314;2023-06-04T15:04:20;4.00;;;1.30;;
44137;SDS011;29800;55.942;37.314;2023-06-04T15:06:46;1.80;;;0.80;;
44137;SDS011;29800;55.942;37.314;2023-06-04T15:09:13;1.40;;;0.90;;
44137;SDS011;29800;55.942;37.314;2023-06-04T15:11:39;3.47;;;1.30;;
44137;SDS011;29800;55.942;37.314;2023-06-04T15:14:06;3.08;;;1.20;;
44137;SDS011;29800;55.942;37.314;2023-06-04T15:16:32;4.22;;;1.20;;
44137;SDS011;29800;55.942;37.314;2023-06-04T15:18:58;3.40;;;1.17;;
44137;SDS011;29800;55.942;37.314;2023-06-04T15:21:25;2.45;;;1.10;;
44137;SDS011;29800;55.942;37.314;2023-06-04T15:23:51;3.20;;;1.00;;
44137;SDS011;29800;55.942;37.314;2023-06-04T15:26:17;2.17;;;1.10;;
44137;SDS011;29800;55.942;37.314;2023-06-04T15:28:44;5.55;;;1.23;;
44137;SDS011;29800;55.942;37.314;2023-06-04T15:31:10;3.13;;;1.27;;
44137;SDS011;29800;55.942;37.314;2023-06-04T15:33:37;3.30;;;1.40;;
44137;SDS011;29800;55.942;37.314;2023-06-04T15:36:04;2.58;;;1.40;;
44137;SDS011;29800;55.942;37.314;2023-06-04T15:38:31;4.45;;;1.45;;
44137;SDS011;29800;55.942;37.314;2023-06-04T15:40:59;1.98;;;0.80;;
44137;SDS011;29800;55.942;37.314;2023-06-04T15:43:25;3.45;;;1.00;;
44137;SDS011;29800;55.942;37.314;2023-06-04T15:45:52;1.65;;;0.98;;
44137;SDS011;29800;55.942;37.314;2023-06-04T15:48:18;3.35;;;1.20;;
44137;SDS011;29800;55.942;37.314;2023-06-04T15:50:44;3.85;;;1.20;;
44137;SDS011;29800;55.942;37.314;2023-06-04T15:53:11;3.85;;;1.30;;
44137;SDS011;29800;55.942;37.314;2023-06-04T15:55:37;4.25;;;1.65;;
44137;SDS011;29800;55.942;37.314;2023-06-04T15:58:04;4.57;;;2.10;;
44137;SDS011;29800;55.942;37.314;2023-06-04T16:00:30;3.22;;;1.52;;
44137;SDS011;29800;55.942;37.314;2023-06-04T16:02:56;3.33;;;1.70;;
44137;SDS011;29800;55.942;37.314;2023-06-04T16:05:23;2.08;;;1.40;;
44137;SDS011;29800;55.942;37.314;2023-06-04T16:07:49;5.22;;;1.33;;
44137;SDS011;29800;55.942;37.314;2023-06-04T16:10:15;4.30;;;1.60;;
44137;SDS011;29800;55.942;37.314;2023-06-04T16:12:41;5.97;;;1.40;;
44137;SDS011;29800;55.942;37.314;2023-06-04T16:15:08;2.95;;;1.60;;
44137;SDS011;29800;55.942;37.314;2023-06-04T16:17:34;5.30;;;1.30;;
44137;SDS011;29800;55.942;37.314;2023-06-04T16:20:01;5.07;;;1.85;;
44137;SDS011;29800;55.942;37.314;2023-06-04T16:22:30;1.63;;;1.00;;
44137;SDS011;29800;55.942;37.314;2023-06-04T16:24:56;5.68;;;1.50;;
44137;SDS011;29800;55.942;37.314;2023-06-04T16:27:22;3.03;;;1.40;;
44137;SDS011;29800;55.942;37.314;2023-06-04T16:29:49;3.50;;;1.30;;
44137;SDS011;29800;55.942;37.314;2023-06-04T16:32:15;6.88;;;1.48;;
44137;SDS011;29800;55.942;37.314;2023-06-04T16:34:41;4.32;;;1.48;;
44137;SDS011;29800;55.942;37.314;2023-06-04T16:37:08;3.83;;;1.40;;
44137;SDS011;29800;55.942;37.314;2023-06-04T16:39:34;6.28;;;1.58;;
44137;SDS011;29800;55.942;37.314;2023-06-04T16:42:00;4.05;;;1.10;;
44137;SDS011;29800;55.942;37.314;2023-06-04T16:44:28;2.40;;;1.15;;
44137;SDS011;29800;55.942;37.314;2023-06-04T16:46:54;2.67;;;1.15;;
44137;SDS011;29800;55.942;37.314;2023-06-04T16:49:21;3.15;;;1.50;;
44137;SDS011;29800;55.942;37.314;2023-06-04T16:51:48;5.20;;;1.40;;
44137;SDS011;29800;55.942;37.314;2023-06-04T16:54:14;2.00;;;1.10;;
44137;SDS011;29800;55.942;37.314;2023-06-04T16:56:41;3.63;;;1.40;;
44137;SDS011;29800;55.942;37.314;2023-06-04T16:59:07;2.83;;;1.30;;
44137;SDS011;29800;55.942;37.314;2023-06-04T17:01:33;6.10;;;1.63;;
44137;SDS011;29800;55.942;37.314;2023-06-04T17:04:00;11.32;;;7.63;;
44137;SDS011;29800;55.942;37.314;2023-06-04T17:06:26;8.10;;;3.58;;
44137;SDS011;29800;55.942;37.314;2023-06-04T17:08:53;6.20;;;3.20;;
44137;SDS011;29800;55.942;37.314;2023-06-04T17:11:19;7.60;;;4.10;;
44137;SDS011;29800;55.942;37.314;2023-06-04T17:13:45;3.75;;;2.30;;
44137;SDS011;29800;55.942;37.314;2023-06-04T17:16:11;4.70;;;2.97;;
44137;SDS011;29800;55.942;37.314;2023-06-04T17:18:38;8.70;;;2.10;;
44137;SDS011;29800;55.942;37.314;2023-06-04T17:21:05;4.72;;;1.92;;
44137;SDS011;29800;55.942;37.314;2023-06-04T17:23:31;4.50;;;1.92;;
44137;SDS011;29800;55.942;37.314;2023-06-04T17:25:57;13.98;;;2.85;;
44137;SDS011;29800;55.942;37.314;2023-06-04T17:28:25;8.10;;;2.53;;
44137;SDS011;29800;55.942;37.314;2023-06-04T17:30:52;7.68;;;2.53;;
44137;SDS011;29800;55.942;37.314;2023-06-04T17:33:18;4.78;;;2.53;;
44137;SDS011;29800;55.942;37.314;2023-06-04T17:35:45;6.80;;;2.53;;
44137;SDS011;29800;55.942;37.314;2023-06-04T17:38:11;6.07;;;2.28;;
44137;SDS011;29800;55.942;37.314;2023-06-04T17:40:37;5.57;;;2.60;;
44137;SDS011;29800;55.942;37.314;2023-06-04T17:43:04;7.38;;;2.80;;
44137;SDS011;29800;55.942;37.314;2023-06-04T17:45:30;8.75;;;4.72;;
44137;SDS011;29800;55.942;37.314;2023-06-04T17:47:57;8.98;;;4.30;;
44137;SDS011;29800;55.942;37.314;2023-06-04T17:50:24;9.55;;;3.53;;
44137;SDS011;29800;55.942;37.314;2023-06-04T17:52:50;7.13;;;3.58;;
44137;SDS011;29800;55.942;37.314;2023-06-04T17:55:16;9.13;;;3.47;;
44137;SDS011;29800;55.942;37.314;2023-06-04T17:57:43;7.80;;;3.00;;
44137;SDS011;29800;55.942;37.314;2023-06-04T18:00:10;7.13;;;3.58;;
44137;SDS011;29800;55.942;37.314;2023-06-04T18:02:40;7.35;;;3.30;;
44137;SDS011;29800;55.942;37.314;2023-06-04T18:05:07;7.50;;;3.20;;
44137;SDS011;29800;55.942;37.314;2023-06-04T18:07:35;12.63;;;4.65;;
44137;SDS011;29800;55.942;37.314;2023-06-04T18:10:01;8.98;;;4.60;;
44137;SDS011;29800;55.942;37.314;2023-06-04T18:12:35;9.70;;;4.22;;
44137;SDS011;29800;55.942;37.314;2023-06-04T18:15:03;11.02;;;3.85;;
44137;SDS011;29800;55.942;37.314;2023-06-04T18:17:33;9.65;;;4.53;;
44137;SDS011;29800;55.942;37.314;2023-06-04T18:20:00;8.55;;;4.00;;
44137;SDS011;29800;55.942;37.314;2023-06-04T18:22:26;7.50;;;4.38;;
44137;SDS011;29800;55.942;37.314;2023-06-04T18:24:52;8.30;;;4.20;;
44137;SDS011;29800;55.942;37.314;2023-06-04T18:27:18;8.35;;;3.85;;
44137;SDS011;29800;55.942;37.314;2023-06-04T18:29:45;8.45;;;3.70;;
44137;SDS011;29800;55.942;37.314;2023-06-04T18:32:12;9.00;;;3.92;;
44137;SDS011;29800;55.942;37.314;2023-06-04T18:34:38;7.65;;;3.60;;
44137;SDS011;29800;55.942;37.314;2023-06-04T18:37:05;6.55;;;3.90;;
44137;SDS011;29800;55.942;37.314;2023-06-04T18:39:31;11.07;;;3.70;;
44137;SDS011;29800;55.942;37.314;2023-06-04T18:41:59;10.80;;;4.03;;
44137;SDS011;29800;55.942;37.314;2023-06-04T18:44:27;6.80;;;3.70;;
44137;SDS011;29800;55.942;37.314;2023-06-04T18:46:54;6.88;;;3.45;;
44137;SDS011;29800;55.942;37.314;2023-06-04T18:49:20;9.07;;;3.65;;
44137;SDS011;29800;55.942;37.314;2023-06-04T18:51:50;7.68;;;3.88;;
44137;SDS011;29800;55.942;37.314;2023-06-04T18:54:18;8.65;;;3.40;;
44137;SDS011;29800;55.942;37.314;2023-06-04T18:56:45;8.40;;;3.53;;
44137;SDS011;29800;55.942;37.314;2023-06-04T18:59:12;5.57;;;3.17;;
44137;SDS011;29800;55.942;37.314;2023-06-04T19:01:39;7.32;;;3.58;;
44137;SDS011;29800;55.942;37.314;2023-06-04T19:04:06;5.70;;;3.50;;
44137;SDS011;29800;55.942;37.314;2023-06-04T19:06:33;6.35;;;3.47;;
44137;SDS011;29800;55.942;37.314;2023-06-04T19:09:00;10.10;;;3.50;;
44137;SDS011;29800;55.942;37.314;2023-06-04T19:11:27;6.57;;;3.20;;
44137;SDS011;29800;55.942;37.314;2023-06-04T19:13:54;6.43;;;3.33;;
44137;SDS011;29800;55.942;37.314;2023-06-04T19:16:21;6.10;;;3.13;;
44137;SDS011;29800;55.942;37.314;2023-06-04T19:18:47;6.60;;;2.90;;
44137;SDS011;29800;55.942;37.314;2023-06-04T19:21:14;8.45;;;3.17;;
44137;SDS011;29800;55.942;37.314;2023-06-04T19:23:41;7.15;;;2.75;;
44137;SDS011;29800;55.942;37.314;2023-06-04T19:26:08;6.13;;;3.55;;
44137;SDS011;29800;55.942;37.314;2023-06-04T19:28:35;7.60;;;3.45;;
44137;SDS011;29800;55.942;37.314;2023-06-04T19:31:03;8.80;;;4.22;;
44137;SDS011;29800;55.942;37.314;2023-06-04T19:33:30;7.88;;;3.40;;
44137;SDS011;29800;55.942;37.314;2023-06-04T19:35:58;6.68;;;3.53;;
44137;SDS011;29800;55.942;37.314;2023-06-04T19:38:26;8.65;;;3.85;;
44137;SDS011;29800;55.942;37.314;2023-06-04T19:40:52;12.73;;;3.95;;
44137;SDS011;29800;55.942;37.314;2023-06-04T19:43:18;12.10;;;4.32;;
44137;SDS011;29800;55.942;37.314;2023-06-04T19:45:45;7.63;;;3.85;;
44137;SDS011;29800;55.942;37.314;2023-06-04T19:48:15;14.02;;;4.40;;
44137;SDS011;29800;55.942;37.314;2023-06-04T19:50:42;11.15;;;4.20;;
44137;SDS011;29800;55.942;37.314;2023-06-04T19:53:08;10.43;;;4.75;;
44137;SDS011;29800;55.942;37.314;2023-06-04T19:55:35;9.30;;;4.65;;
44137;SDS011;29800;55.942;37.314;2023-06-04T19:58:01;7.90;;;3.80;;
44137;SDS011;29800;55.942;37.314;2023-06-04T20:00:28;9.48;;;4.00;;
44137;SDS011;29800;55.942;37.314;2023-06-04T20:02:54;7.47;;;3.63;;
44137;SDS011;29800;55.942;37.314;2023-06-04T20:05:21;5.97;;;3.67;;
44137;SDS011;29800;55.942;37.314;2023-06-04T20:07:48;7.03;;;3.80;;
44137;SDS011;29800;55.942;37.314;2023-06-04T20:10:14;5.85;;;3.20;;
44137;SDS011;29800;55.942;37.314;2023-06-04T20:12:40;6.28;;;3.15;;
44137;SDS011;29800;55.942;37.314;2023-06-04T20:15:07;5.38;;;2.97;;
44137;SDS011;29800;55.942;37.314;2023-06-04T20:17:34;9.75;;;3.08;;
44137;SDS011;29800;55.942;37.314;2023-06-04T20:20:00;6.22;;;3.00;;
44137;SDS011;29800;55.942;37.314;2023-06-04T20:22:26;5.07;;;2.88;;
44137;SDS011;29800;55.942;37.314;2023-06-04T20:24:52;4.80;;;2.58;;
44137;SDS011;29800;55.942;37.314;2023-06-04T20:27:19;6.85;;;3.03;;
44137;SDS011;29800;55.942;37.314;2023-06-04T20:29:45;9.00;;;2.85;;
44137;SDS011;29800;55.942;37.314;2023-06-04T20:32:11;6.90;;;3.13;;
44137;SDS011;29800;55.942;37.314;2023-06-04T20:34:38;6.43;;;2.63;;
44137;SDS011;29800;55.942;37.314;2023-06-04T20:37:04;6.07;;;2.85;;
44137;SDS011;29800;55.942;37.314;2023-06-04T20:39:30;5.32;;;2.83;;
44137;SDS011;29800;55.942;37.314;2023-06-04T20:41:58;6.78;;;3.15;;